Coulsdon, United Kingdom
Current Conditions -  °F | °C
As of 12:20 PM on Friday 28 Nov 2014 (Local Time) from EGKB Reporting Station
Haze Haze  
Wind Chill: 50°   Ceiling: 600
Heat Index: 50°   Visibility: 1.5mi
Dew Point: 46°   Wind: 8mph
Humidity: 87%   Direction: 70°ENE
Pressure: 29.59"   Gusts: NA
Location:  51.31°N, 0.14°W
Report Text: EGKB 281220Z 07007KT 2500 HZ BKN006 10/08 Q1002
Loading
Personal Weather Stations






























Interactive Weather Map New forecast layout! Learn more

10-Day Weather Forecast

Advertisements
Track Severe Weather on mobile